Amenia, New York
Current Conditions -  °F | °C
As of 1:53 AM on Friday 31 Oct 2014 (Local Time) from KPOU Reporting Station
Broken Clouds Broken Clouds  
Wind Chill: 43°   Ceiling: 4900
Heat Index: 43°   Visibility: 10mi
Dew Point: 35°   Wind: 3mph
Humidity: 74%   Direction: 360°N
Pressure: 30.03"   Gusts: NA
Location:  41.85°N, 73.55°W
Report Text: KPOU 310553Z AUTO 36003KT 10SM BKN049 06/02 A3003 RMK AO2 SLP165 T00610017 10111 20061 50001 TSNO
Loading
Personal Weather Stations






























Interactive Weather Map New forecast layout! Learn more

10-Day Weather Forecast

Advertisements
Track Severe Weather on mobile